Time;durP1;ratioP1;P1;durP2;ratioP2;P2;SDS_P1;SDS_P2;PMS_P1;PMS_P2;Temp;Humidity;BMP_temperature;BMP_pressure;BME280_temperature;BME280_humidity;BME280_pressure;Samples;Min_cycle;Max_cycle;Signal;HPM_P1;HPM_P2
2022/05/23 00:01:48;;;;;;;4.33;3.70;;;;;;;11.29;100.00;99061.09;5033741;28;20197;-77
2022/05/23 00:04:15;;;;;;;4.17;3.50;;;;;;;11.24;100.00;99068.25;5032996;28;20248;-77
2022/05/23 00:06:44;;;;;;;4.23;3.53;;;;;;;11.18;100.00;99066.50;5034145;28;20194;-77
2022/05/23 00:09:14;;;;;;;3.97;3.57;;;;;;;11.07;100.00;99059.28;5032158;28;20590;-77
2022/05/23 00:11:40;;;;;;;6.03;3.80;;;;;;;11.06;100.00;99063.81;5033286;28;20623;-77
2022/05/23 00:14:09;;;;;;;4.27;3.70;;;;;;;11.03;100.00;99067.81;5032108;28;20225;-79
2022/05/23 00:16:41;;;;;;;4.10;3.70;;;;;;;11.02;100.00;99073.41;5032386;28;20175;-77
2022/05/23 00:19:09;;;;;;;5.37;3.73;;;;;;;11.01;100.00;99071.78;5032025;28;20201;-77
2022/05/23 00:21:37;;;;;;;5.13;4.13;;;;;;;10.96;100.00;99074.34;5032328;28;20194;-76
2022/05/23 00:24:04;;;;;;;5.27;4.07;;;;;;;10.97;100.00;99073.28;5032014;28;20182;-77
2022/05/23 00:26:31;;;;;;;5.40;3.63;;;;;;;10.93;100.00;99078.31;5033574;28;20210;-77
2022/05/23 00:28:57;;;;;;;5.93;4.00;;;;;;;10.82;100.00;99071.13;5033096;28;20240;-78
2022/05/23 00:31:24;;;;;;;4.10;3.70;;;;;;;10.77;100.00;99072.84;5032963;28;20268;-77
2022/05/23 00:36:37;;;;;;;4.60;4.07;;;;;;;10.71;100.00;99079.13;5046077;28;20586;-77
2022/05/23 00:39:04;;;;;;;4.13;3.70;;;;;;;10.66;100.00;99087.88;5030506;28;20578;-76
2022/05/23 00:44:22;;;;;;;5.37;4.00;;;;;;;10.59;100.00;99087.97;5032772;28;20197;-76
2022/05/23 00:46:53;;;;;;;5.90;3.83;;;;;;;10.56;100.00;99093.00;5031444;28;20213;-76
2022/05/23 00:49:23;;;;;;;4.40;4.00;;;;;;;10.52;100.00;99095.34;5032934;28;20181;-77
2022/05/23 00:51:51;;;;;;;4.93;4.13;;;;;;;10.49;100.00;99086.94;5032535;28;20726;-76
2022/05/23 00:54:19;;;;;;;4.93;4.50;;;;;;;10.47;100.00;99095.22;5032696;28;20939;-77
2022/05/23 00:56:47;;;;;;;5.97;4.40;;;;;;;10.45;100.00;99089.25;5031181;28;20690;-76
2022/05/23 00:59:18;;;;;;;5.00;4.60;;;;;;;10.42;100.00;99087.06;5030989;28;20198;-76
2022/05/23 01:01:45;;;;;;;4.87;4.40;;;;;;;10.40;100.00;99088.34;5047962;28;20330;-77
2022/05/23 01:04:12;;;;;;;5.17;4.50;;;;;;;10.39;100.00;99089.38;5032236;28;20214;-76
2022/05/23 01:06:39;;;;;;;5.37;4.63;;;;;;;10.35;100.00;99080.19;5032360;28;20186;-76
2022/05/23 01:09:06;;;;;;;5.00;4.60;;;;;;;10.28;100.00;99076.78;5032350;28;20308;-76
2022/05/23 01:11:33;;;;;;;6.10;5.50;;;;;;;10.24;100.00;99080.97;5032496;28;20271;-76
2022/05/23 01:13:59;;;;;;;5.30;4.80;;;;;;;10.21;100.00;99074.22;5031047;28;20202;-76
2022/05/23 01:16:27;;;;;;;5.93;4.87;;;;;;;10.20;100.00;99077.94;5031537;28;20249;-76
2022/05/23 01:18:58;;;;;;;5.43;4.93;;;;;;;10.18;100.00;99077.34;5030769;28;20202;-79
2022/05/23 01:21:43;;;;;;;5.20;4.70;;;;;;;10.18;100.00;99074.66;5047425;28;20195;-78
2022/05/23 01:24:15;;;;;;;5.40;4.90;;;;;;;10.18;100.00;99068.50;5030682;28;20190;-76
2022/05/23 01:26:48;;;;;;;6.10;5.00;;;;;;;10.12;100.00;99068.34;5031152;28;20218;-78
2022/05/23 01:29:27;;;;;;;6.73;4.70;;;;;;;10.07;100.00;99060.22;5030949;28;20194;-77
2022/05/23 01:31:59;;;;;;;5.23;4.83;;;;;;;10.07;100.00;99062.06;5030822;28;20225;-78
2022/05/23 01:34:33;;;;;;;5.40;4.83;;;;;;;10.05;100.00;99059.63;5030839;28;20200;-77
2022/05/23 01:37:07;;;;;;;5.40;4.90;;;;;;;10.05;100.00;99061.47;5031264;28;20297;-77
2022/05/23 01:39:45;;;;;;;5.30;4.80;;;;;;;10.04;100.00;99059.84;5030645;28;20201;-77
2022/05/23 01:42:12;;;;;;;6.57;5.50;;;;;;;9.98;100.00;99058.91;5030632;28;20198;-79
2022/05/23 01:44:39;;;;;;;5.83;4.70;;;;;;;9.95;100.00;99059.34;5030563;28;20202;-78
2022/05/23 01:47:17;;;;;;;5.20;4.73;;;;;;;9.91;100.00;99066.22;5030285;28;20665;-76
2022/05/23 01:49:56;;;;;;;5.40;4.90;;;;;;;9.90;100.00;99053.06;5030571;28;20177;-77
2022/05/23 01:52:36;;;;;;;6.17;5.30;;;;;;;9.87;100.00;99046.31;5030282;28;20301;-76
2022/05/23 01:55:10;;;;;;;6.33;5.30;;;;;;;9.83;100.00;99044.31;5030681;28;20209;-78
2022/05/23 01:57:41;;;;;;;5.57;5.07;;;;;;;9.81;100.00;99033.84;5029960;28;20237;-77
2022/05/23 02:02:55;;;;;;;7.43;5.57;;;;;;;9.78;100.00;99036.16;5030353;28;20224;-79
2022/05/23 02:05:25;;;;;;;5.73;5.23;;;;;;;9.73;100.00;99040.34;5031386;28;20313;-77
2022/05/23 02:07:53;;;;;;;6.27;5.67;;;;;;;9.72;100.00;99025.34;5031285;28;20248;-77
2022/05/23 02:10:20;;;;;;;6.37;5.70;;;;;;;9.73;100.00;99031.50;5031341;28;20718;-77
2022/05/23 02:12:47;;;;;;;6.07;5.57;;;;;;;9.67;100.00;99021.69;5029814;28;20741;-79
2022/05/23 02:15:20;;;;;;;6.13;5.57;;;;;;;9.63;100.00;99017.84;5029831;28;20212;-77
2022/05/23 02:18:03;;;;;;;6.47;5.77;;;;;;;9.62;100.00;99011.69;5044545;28;20178;-78
2022/05/23 02:20:30;;;;;;;6.47;5.90;;;;;;;9.58;100.00;99015.88;5031116;28;20190;-78
2022/05/23 02:22:57;;;;;;;6.17;5.57;;;;;;;9.60;100.00;99008.44;5030097;28;20237;-77
2022/05/23 02:25:26;;;;;;;6.67;6.03;;;;;;;9.58;100.00;99013.19;5029694;28;20194;-75
2022/05/23 02:27:54;;;;;;;7.27;5.60;;;;;;;9.55;100.00;99008.31;5029721;28;20241;-78
2022/05/23 02:30:21;;;;;;;7.50;5.90;;;;;;;9.54;100.00;99012.03;5029600;28;20674;-79
2022/05/23 02:32:52;;;;;;;6.63;5.97;;;;;;;9.55;100.00;99011.00;5029620;28;20222;-77
2022/05/23 02:35:19;;;;;;;6.87;5.33;;;;;;;9.52;100.00;99005.25;5029551;28;20633;-77
2022/05/23 02:37:47;;;;;;;6.07;5.47;;;;;;;9.51;100.00;99006.31;5029613;28;20635;-78
2022/05/23 02:40:17;;;;;;;6.13;5.53;;;;;;;9.47;100.00;98995.25;5029643;28;20229;-77
2022/05/23 02:42:45;;;;;;;7.20;5.77;;;;;;;9.42;100.00;98992.47;5029765;28;20256;-76
2022/05/23 02:45:12;;;;;;;6.57;5.97;;;;;;;9.46;100.00;99006.19;5028996;28;20642;-77
2022/05/23 02:47:43;;;;;;;7.23;6.00;;;;;;;9.39;100.00;99002.78;5029791;28;20276;-76
2022/05/23 02:50:11;;;;;;;7.00;5.97;;;;;;;9.35;100.00;99007.75;5029183;28;20332;-76
2022/05/23 02:52:44;;;;;;;6.50;5.90;;;;;;;9.31;100.00;98998.56;5029134;28;20249;-75
2022/05/23 02:55:15;;;;;;;6.17;5.67;;;;;;;9.25;100.00;98980.75;5045509;28;20206;-76
2022/05/23 02:57:42;;;;;;;6.87;5.77;;;;;;;9.33;100.00;98985.00;5028980;28;20305;-77
2022/05/23 03:00:15;;;;;;;6.70;6.10;;;;;;;9.34;100.00;98989.25;5028967;28;20720;-76
2022/05/23 03:03:03;;;;;;;6.97;5.87;;;;;;;9.29;100.00;98989.94;5028909;28;21036;-77
2022/05/23 03:05:42;;;;;;;6.43;5.83;;;;;;;9.29;100.00;98992.63;5029481;28;20193;-77
2022/05/23 03:08:11;;;;;;;6.67;6.07;;;;;;;9.36;100.00;98997.88;5030289;28;20221;-76
2022/05/23 03:10:38;;;;;;;7.37;5.90;;;;;;;9.33;100.00;99003.69;5030530;28;20671;-76
2022/05/23 03:13:05;;;;;;;6.23;5.73;;;;;;;9.27;100.00;99005.41;5028583;28;20217;-76
2022/05/23 03:15:33;;;;;;;6.93;6.30;;;;;;;9.26;100.00;98995.75;5029125;28;20201;-76
2022/05/23 03:18:01;;;;;;;6.57;5.97;;;;;;;9.31;100.00;98987.06;5045398;28;20218;-77
2022/05/23 03:20:29;;;;;;;7.33;6.00;;;;;;;9.25;100.00;98980.75;5029457;28;20248;-76
2022/05/23 03:28:27;;;;;;;6.53;5.87;;;;;;;9.35;100.00;98983.69;5030216;28;20169;-76
2022/05/23 03:30:54;;;;;;;6.47;5.83;;;;;;;9.38;100.00;98988.59;5029119;28;20195;-76
2022/05/23 03:33:21;;;;;;;6.70;6.10;;;;;;;9.43;100.00;98990.56;5045195;28;20577;-76
2022/05/23 03:35:48;;;;;;;10.00;6.27;;;;;;;9.43;100.00;98991.41;5028679;28;20216;-76
2022/05/23 03:38:16;;;;;;;7.23;6.40;;;;;;;9.49;100.00;98989.69;5045143;28;20198;-76
2022/05/23 03:40:43;;;;;;;13.00;7.37;;;;;;;9.58;100.00;98997.16;5045386;28;20198;-76
2022/05/23 03:43:11;;;;;;;13.03;7.50;;;;;;;9.57;100.00;98989.34;5028488;28;20738;-77
2022/05/23 03:45:38;;;;;;;10.07;6.50;;;;;;;9.59;100.00;98996.09;5029091;28;20685;-76
2022/05/23 03:48:10;;;;;;;6.80;6.13;;;;;;;9.68;100.00;98999.25;5028766;28;20181;-77
2022/05/23 03:50:37;;;;;;;7.20;5.37;;;;;;;9.71;100.00;99001.47;5030218;28;20609;-76
2022/05/23 03:53:06;;;;;;;6.73;6.10;;;;;;;9.79;100.00;99003.03;5028115;28;20304;-76
2022/05/23 03:55:38;;;;;;;6.30;5.70;;;;;;;10.45;100.00;99003.56;5013202;28;20630;-77
2022/05/23 03:58:24;;;;;;;7.43;5.73;;;;;;;11.59;100.00;99009.09;5028284;28;20258;-76
2022/05/23 04:01:13;;;;;;;7.10;5.47;;;;;;;13.17;100.00;99005.88;5028744;28;20703;-76
2022/05/23 04:03:42;;;;;;;5.17;4.70;;;;;;;14.49;100.00;99021.41;5029157;28;20281;-76
2022/05/23 04:06:10;;;;;;;5.20;4.70;;;;;;;15.54;100.00;99016.81;5012106;28;20681;-77
2022/05/23 04:08:48;;;;;;;5.53;4.70;;;;;;;16.25;100.00;99031.16;5028705;28;20190;-76
2022/05/23 04:11:15;;;;;;;5.00;4.50;;;;;;;16.58;100.00;99022.53;5028560;28;20202;-76
2022/05/23 04:13:42;;;;;;;5.30;4.67;;;;;;;16.61;100.00;99021.97;5030108;28;20696;-77
2022/05/23 04:16:09;;;;;;;4.37;3.87;;;;;;;16.65;100.00;99024.97;5032180;28;20225;-77
2022/05/23 04:18:37;;;;;;;4.60;4.20;;;;;;;16.62;100.00;99018.19;5031904;28;20191;-76
2022/05/23 04:21:04;;;;;;;5.30;4.80;;;;;;;16.44;100.00;99016.03;5031764;28;20191;-77
2022/05/23 04:23:32;;;;;;;6.73;4.77;;;;;;;15.90;100.00;99014.97;5031854;28;20201;-77
2022/05/23 04:26:02;;;;;;;5.40;4.50;;;;;;;15.47;100.00;99014.31;5048644;28;20215;-77
2022/05/23 04:28:30;;;;;;;5.07;3.90;;;;;;;15.10;100.00;99019.84;5033232;28;20605;-78
2022/05/23 04:30:57;;;;;;;5.93;4.43;;;;;;;14.87;100.00;99026.50;5031782;28;20200;-76
2022/05/23 04:36:19;;;;;;;5.60;3.80;;;;;;;14.27;100.00;99037.66;5017816;28;20196;-76
2022/05/23 04:38:48;;;;;;;4.73;3.87;;;;;;;14.30;100.00;99036.31;5031466;28;20204;-77
2022/05/23 04:41:15;;;;;;;4.80;4.30;;;;;;;14.28;100.00;99038.44;5032169;28;20621;-78
2022/05/23 04:44:00;;;;;;;4.40;4.00;;;;;;;14.25;100.00;99029.00;5031577;28;20182;-77
2022/05/23 04:46:28;;;;;;;5.47;4.40;;;;;;;14.32;100.00;99028.81;5048453;28;20186;-78
2022/05/23 04:52:02;;;;;;;4.93;4.27;;;;;;;14.61;100.00;99022.00;5031446;28;20196;-78
2022/05/23 04:54:36;;;;;;;4.10;3.67;;;;;;;14.79;100.00;99018.88;5031623;28;20193;-78
2022/05/23 04:57:05;;;;;;;4.67;4.07;;;;;;;14.97;100.00;99014.94;5031091;28;20550;-79
2022/05/23 04:59:34;;;;;;;5.13;3.83;;;;;;;15.14;100.00;99014.72;5032165;28;20201;-78
2022/05/23 05:02:03;;;;;;;4.50;4.07;;;;;;;15.33;100.00;99008.59;5031550;28;20206;-78
2022/05/23 05:04:31;;;;;;;4.60;4.20;;;;;;;15.23;100.00;99018.53;5031482;28;20870;-77
2022/05/23 05:06:58;;;;;;;5.97;4.13;;;;;;;15.37;100.00;99001.59;5031555;28;20214;-78
2022/05/23 05:09:25;;;;;;;4.73;3.97;;;;;;;15.57;100.00;99003.56;5047649;28;20190;-78
2022/05/23 05:12:00;;;;;;;4.57;3.47;;;;;;;15.71;100.00;98993.88;5030923;28;20196;-78
2022/05/23 05:14:30;;;;;;;5.67;4.10;;;;;;;15.90;100.00;98996.06;5031006;28;20229;-78
2022/05/23 05:17:02;;;;;;;4.90;4.13;;;;;;;16.02;100.00;98996.59;5030969;28;20213;-78
2022/05/23 05:19:31;;;;;;;4.53;3.77;;;;;;;16.10;100.00;98993.34;5030696;28;20665;-78
2022/05/23 05:22:16;;;;;;;4.93;3.93;;;;;;;16.33;100.00;98992.78;5031751;28;20193;-78
2022/05/23 05:25:08;;;;;;;4.63;3.87;;;;;;;16.56;100.00;98996.81;5030270;28;20221;-77
2022/05/23 05:27:37;;;;;;;5.03;3.37;;;;;;;16.84;100.00;98990.03;5014747;28;20222;-78
2022/05/23 05:30:07;;;;;;;5.23;3.40;;;;;;;17.02;100.00;98995.63;5031615;28;20183;-79
2022/05/23 05:33:02;;;;;;;4.40;3.40;;;;;;;17.30;100.00;99007.69;5013933;28;20288;-78
2022/05/23 05:35:38;;;;;;;4.10;3.43;;;;;;;17.56;100.00;99002.94;5029608;28;20289;-79
2022/05/23 05:38:10;;;;;;;4.97;3.67;;;;;;;17.75;100.00;99003.94;5046694;28;20174;-78
2022/05/23 05:40:37;;;;;;;4.63;3.87;;;;;;;17.89;100.00;99004.09;5030324;28;20727;-78
2022/05/23 05:43:08;;;;;;;4.47;3.93;;;;;;;17.93;98.51;98997.84;5029978;28;20198;-79
2022/05/23 05:45:58;;;;;;;4.23;3.73;;;;;;;18.22;97.90;98997.06;5013812;28;20186;-78
2022/05/23 05:48:57;;;;;;;5.10;3.77;;;;;;;18.57;94.03;98985.13;5034244;28;20263;-78
2022/05/23 05:51:24;;;;;;;4.67;3.57;;;;;;;18.87;89.34;98982.06;5014112;28;20199;-78
2022/05/23 05:54:23;;;;;;;4.73;3.87;;;;;;;19.08;85.75;98983.44;5030048;28;20238;-76
2022/05/23 05:56:59;;;;;;;5.73;3.73;;;;;;;19.30;84.15;98978.25;5029962;28;20303;-78
2022/05/23 05:59:27;;;;;;;4.03;3.00;;;;;;;19.25;82.35;98980.25;5013537;28;20702;-79
2022/05/23 06:01:55;;;;;;;3.70;3.40;;;;;;;19.30;82.81;98983.69;5029317;28;20197;-78
2022/05/23 06:04:25;;;;;;;4.17;3.10;;;;;;;19.54;77.20;98980.16;5028586;28;20198;-78
2022/05/23 06:12:41;;;;;;;4.40;3.10;;;;;;;19.82;75.89;98986.53;5029914;28;20767;-77
2022/05/23 06:15:31;;;;;;;4.53;3.30;;;;;;;19.84;77.58;98989.75;5029800;28;20211;-80
2022/05/23 06:17:59;;;;;;;5.90;3.13;;;;;;;19.85;79.58;98989.44;5029278;28;20192;-80
2022/05/23 06:20:26;;;;;;;5.63;3.13;;;;;;;19.90;79.32;98983.94;5012950;28;20678;-78
2022/05/23 06:22:53;;;;;;;5.53;3.17;;;;;;;20.14;76.67;98979.19;5030609;28;20192;-78
2022/05/23 06:25:21;;;;;;;3.23;2.60;;;;;;;20.54;74.10;98987.78;5029994;28;20192;-78
2022/05/23 06:27:50;;;;;;;5.33;3.80;;;;;;;20.60;72.18;98984.66;5028267;28;20293;-78
2022/05/23 06:30:21;;;;;;;6.30;3.63;;;;;;;20.79;70.06;98979.13;5028897;28;20328;-78
2022/05/23 06:32:54;;;;;;;3.60;2.63;;;;;;;20.76;69.40;98973.50;5027908;28;20237;-77
2022/05/23 06:35:32;;;;;;;4.10;2.23;;;;;;;20.76;69.03;98968.06;5025390;28;20229;-78
2022/05/23 06:37:59;;;;;;;2.93;2.03;;;;;;;20.76;65.90;98971.59;5008479;28;20207;-79
2022/05/23 06:40:35;;;;;;;3.00;1.87;;;;;;;20.60;64.28;98976.50;5020013;28;20192;-78
2022/05/23 06:43:21;;;;;;;2.37;1.70;;;;;;;20.81;62.55;98965.25;5030177;28;20235;-78
2022/05/23 06:46:07;;;;;;;2.90;1.90;;;;;;;21.02;62.42;98969.16;5030385;28;20192;-78
2022/05/23 06:48:53;;;;;;;2.47;2.23;;;;;;;21.04;62.69;98951.38;5029350;28;20198;-79
2022/05/23 06:51:56;;;;;;;3.67;2.00;;;;;;;21.33;60.16;98937.44;5008126;28;20192;-78
2022/05/23 06:54:31;;;;;;;2.67;1.80;;;;;;;21.51;59.39;98931.03;5023107;28;20223;-79
2022/05/23 06:57:03;;;;;;;3.03;1.70;;;;;;;21.86;59.46;98934.84;5028673;28;20204;-78
2022/05/23 06:59:31;;;;;;;1.73;1.60;;;;;;;22.01;52.29;98930.97;5028877;28;20288;-79
2022/05/23 07:01:58;;;;;;;1.77;1.33;;;;;;;21.85;48.75;98932.44;5028988;28;20282;-78
2022/05/23 07:13:09;;;;;;;2.60;1.07;;;;;;;22.05;47.79;98936.59;5028603;28;20220;-79
2022/05/23 07:15:46;;;;;;;1.50;1.10;;;;;;;22.22;47.54;98932.06;5030379;28;20646;-78
2022/05/23 07:18:18;;;;;;;3.30;1.53;;;;;;;22.54;46.95;98944.56;5028647;28;20590;-77
2022/05/23 07:20:46;;;;;;;1.57;1.13;;;;;;;22.53;47.21;98934.78;5012808;28;20199;-80
2022/05/23 07:23:38;;;;;;;3.33;1.30;;;;;;;22.67;45.28;98937.41;5028709;28;20195;-78
2022/05/23 07:26:17;;;;;;;1.30;1.20;;;;;;;22.60;45.12;98939.78;5013670;28;20866;-79
2022/05/23 07:28:48;;;;;;;1.37;1.17;;;;;;;22.63;45.58;98933.72;5028710;28;20201;-80
2022/05/23 07:31:18;;;;;;;2.90;1.30;;;;;;;22.67;45.61;98923.78;5012576;28;20191;-78
2022/05/23 07:33:45;;;;;;;2.30;1.40;;;;;;;22.63;45.65;98922.78;5028345;28;20222;-78
2022/05/23 07:36:17;;;;;;;2.57;1.40;;;;;;;22.86;45.59;98915.34;5028470;28;20724;-78
2022/05/23 07:38:44;;;;;;;2.90;1.77;;;;;;;23.19;45.61;98913.78;5028325;28;20192;-78
2022/05/23 07:41:23;;;;;;;2.77;1.50;;;;;;;23.35;45.23;98905.94;5013653;28;20244;-77
2022/05/23 07:43:54;;;;;;;2.80;1.40;;;;;;;24.00;44.01;98909.31;5028787;28;20206;-78
2022/05/23 07:46:21;;;;;;;1.70;1.40;;;;;;;24.44;43.45;98908.09;5028681;28;20186;-78
2022/05/23 07:48:49;;;;;;;1.97;1.30;;;;;;;24.60;42.02;98913.00;5029721;28;20212;-78
2022/05/23 07:51:19;;;;;;;2.90;1.17;;;;;;;24.63;42.20;98920.59;5048979;28;20200;-79
2022/05/23 08:02:16;;;;;;;2.38;1.20;;;;;;;24.75;39.89;98898.75;5031860;28;20203;-79
2022/05/23 08:04:55;;;;;;;1.17;1.05;;;;;;;24.64;38.77;98898.31;5017038;28;20219;-80
2022/05/23 08:07:28;;;;;;;3.10;1.10;;;;;;;24.55;39.25;98892.88;5031871;28;20194;-80
2022/05/23 08:10:00;;;;;;;3.10;1.23;;;;;;;24.62;39.16;98902.53;5015469;28;20202;-80
2022/05/23 08:12:31;;;;;;;2.50;1.40;;;;;;;24.71;39.99;98897.81;5016335;28;20190;-79
2022/05/23 08:14:59;;;;;;;2.10;1.25;;;;;;;24.80;39.70;98898.56;5031423;28;20617;-82
2022/05/23 08:17:31;;;;;;;2.00;1.30;;;;;;;25.06;39.83;98895.69;5015850;28;20197;-79
2022/05/23 08:20:10;;;;;;;1.70;1.25;;;;;;;24.94;39.58;98902.72;5030706;28;20225;-80
2022/05/23 08:22:39;;;;;;;2.03;1.10;;;;;;;25.14;40.45;98901.16;5030793;28;20205;-80
2022/05/23 08:25:19;;;;;;;1.67;1.10;;;;;;;24.99;39.15;98904.47;5031430;28;20192;-80
2022/05/23 08:27:53;;;;;;;2.25;1.13;;;;;;;24.71;40.94;98900.56;5031243;28;20735;-80
2022/05/23 08:30:20;;;;;;;2.88;1.50;;;;;;;24.37;40.28;98906.97;5031238;28;20190;-79
2022/05/23 08:32:47;;;;;;;2.55;1.30;;;;;;;24.10;40.68;98913.63;5031120;28;20705;-80
2022/05/23 08:35:17;;;;;;;1.63;1.10;;;;;;;23.68;41.36;98913.38;5031300;28;20570;-81
2022/05/23 08:37:58;;;;;;;2.70;1.25;;;;;;;23.44;43.85;98906.75;5031452;28;20198;-78
2022/05/23 08:40:54;;;;;;;5.90;1.40;;;;;;;23.31;42.50;98910.44;5028541;28;20206;-78
2022/05/23 08:43:27;;;;;;;3.45;1.30;;;;;;;23.25;43.29;98912.53;5031427;28;20191;-78
2022/05/23 08:45:57;;;;;;;2.03;1.23;;;;;;;23.15;43.79;98910.91;5015361;28;20196;-77
2022/05/23 08:48:57;;;;;;;2.22;1.30;;;;;;;23.24;43.10;98914.44;5031273;28;20684;-77
2022/05/23 08:52:05;;;;;;;4.03;1.20;;;;;;;23.03;42.65;98899.00;5015826;28;20208;-78
2022/05/23 08:54:41;;;;;;;2.53;1.43;;;;;;;22.98;43.30;98908.13;5025121;28;20232;-79
2022/05/23 08:58:10;;;;;;;2.03;1.20;;;;;;;23.01;42.69;98891.09;5031661;28;20329;-78
2022/05/23 09:00:43;;;;;;;1.10;1.00;;;;;;;23.12;42.70;98897.06;5029685;28;20188;-80
2022/05/23 09:03:13;;;;;;;2.27;1.03;;;;;;;23.22;42.26;98891.31;4998487;28;20720;-78
2022/05/23 09:05:46;;;;;;;2.03;1.27;;;;;;;23.12;41.65;98881.50;5031387;28;20207;-78
2022/05/23 09:08:37;;;;;;;1.87;1.03;;;;;;;23.13;43.39;98888.56;5031180;28;20230;-78
2022/05/23 09:11:07;;;;;;;2.80;1.40;;;;;;;23.07;42.06;98878.09;5014406;28;20502;-78
2022/05/23 09:13:38;;;;;;;2.10;1.70;;;;;;;23.26;42.45;98873.94;5032448;28;20196;-78
2022/05/23 09:16:05;;;;;;;3.10;1.23;;;;;;;23.14;42.18;98860.09;5031876;28;20178;-79
2022/05/23 09:18:40;;;;;;;1.40;1.10;;;;;;;23.24;43.82;98862.53;5030625;28;20187;-78
2022/05/23 09:21:08;;;;;;;3.28;1.50;;;;;;;23.22;42.39;98855.78;5030761;28;20174;-77
2022/05/23 09:23:40;;;;;;;2.90;1.20;;;;;;;23.39;44.97;98852.22;5031950;28;20242;-78
2022/05/23 09:26:13;;;;;;;3.93;1.40;;;;;;;23.33;43.79;98842.63;5030464;28;20583;-78
2022/05/23 09:28:40;;;;;;;2.13;1.23;;;;;;;23.10;45.17;98845.47;5030807;28;20174;-77
2022/05/23 09:31:48;;;;;;;3.45;1.35;;;;;;;23.43;43.40;98840.34;5031805;28;20193;-77
2022/05/23 09:34:36;;;;;;;2.47;1.20;;;;;;;23.69;43.06;98834.88;5013500;28;20618;-81
2022/05/23 09:37:21;;;;;;;2.78;1.48;;;;;;;23.57;42.14;98832.78;5030439;28;20181;-80
2022/05/23 09:39:58;;;;;;;2.03;1.33;;;;;;;23.56;42.89;98833.13;5036190;28;20268;-80
2022/05/23 09:48:22;;;;;;;2.72;1.40;;;;;;;24.00;41.18;98824.50;5046879;28;20642;-80
2022/05/23 09:51:05;;;;;;;4.13;1.50;;;;;;;23.87;41.81;98813.75;5030489;28;20187;-78
2022/05/23 09:53:47;;;;;;;2.03;1.45;;;;;;;24.00;41.31;98810.81;5031802;28;20255;-78
2022/05/23 09:56:30;;;;;;;2.70;1.45;;;;;;;24.32;41.13;98809.41;5031677;28;20225;-78
2022/05/23 09:59:00;;;;;;;3.75;1.60;;;;;;;24.54;41.03;98806.38;5032120;28;20308;-79
2022/05/23 10:01:33;;;;;;;1.95;1.45;;;;;;;24.81;39.57;98805.13;5031861;28;20648;-78
2022/05/23 10:04:00;;;;;;;3.20;1.58;;;;;;;24.87;39.16;98806.53;5031387;28;20227;-79
2022/05/23 10:06:37;;;;;;;5.03;1.60;;;;;;;24.76;39.57;98801.75;5046682;28;20193;-78
2022/05/23 10:09:07;;;;;;;2.17;1.50;;;;;;;24.79;39.07;98790.94;5031246;28;20556;-78
2022/05/23 10:11:53;;;;;;;2.10;1.40;;;;;;;24.96;39.55;98790.84;5029655;28;20258;-78
2022/05/23 10:14:22;;;;;;;3.42;1.38;;;;;;;25.11;38.94;98786.69;5030673;28;20206;-79
2022/05/23 10:16:58;;;;;;;3.95;1.52;;;;;;;25.31;38.99;98788.63;5029609;28;20187;-79
2022/05/23 10:19:27;;;;;;;3.72;1.42;;;;;;;25.12;38.43;98785.56;5031145;28;20231;-78
2022/05/23 10:22:15;;;;;;;3.42;1.65;;;;;;;25.43;39.09;98783.16;5031349;28;20180;-78
2022/05/23 10:24:59;;;;;;;4.05;1.48;;;;;;;25.30;38.50;98781.53;5046192;28;20192;-79
2022/05/23 10:27:38;;;;;;;2.78;1.50;;;;;;;25.54;37.30;98780.00;5046521;28;20206;-79
2022/05/23 10:30:07;;;;;;;2.58;1.50;;;;;;;25.65;37.73;98765.56;5046113;28;20236;-80
2022/05/23 10:32:38;;;;;;;3.35;1.40;;;;;;;25.84;37.87;98771.31;5030842;28;20241;-80
2022/05/23 10:35:09;;;;;;;4.68;1.35;;;;;;;26.17;36.45;98770.44;5046051;28;20693;-78
2022/05/23 10:37:37;;;;;;;2.53;1.60;;;;;;;26.39;35.85;98761.75;5046246;28;20194;-79
2022/05/23 10:43:07;;;;;;;2.10;1.50;;;;;;;26.41;35.60;98775.16;5029830;28;20251;-77
2022/05/23 10:45:47;;;;;;;4.45;1.55;;;;;;;26.70;35.16;98766.63;5030436;28;20212;-78
2022/05/23 10:48:35;;;;;;;4.43;1.80;;;;;;;26.61;35.91;98769.50;5030473;28;20185;-78
2022/05/23 10:51:29;;;;;;;3.38;1.40;;;;;;;26.49;36.27;98763.25;5029132;28;20588;-78
2022/05/23 10:54:11;;;;;;;5.90;2.05;;;;;;;26.61;36.06;98757.72;5029230;28;20218;-78
2022/05/23 10:56:57;;;;;;;3.05;1.77;;;;;;;26.42;36.94;98758.31;5029063;28;20221;-78
2022/05/23 10:59:42;;;;;;;2.35;1.63;;;;;;;26.70;36.77;98756.44;5029885;28;20228;-80
2022/05/23 11:02:25;;;;;;;2.10;1.45;;;;;;;26.67;37.05;98759.09;5030331;28;20181;-79
2022/05/23 11:05:21;;;;;;;2.58;2.05;;;;;;;26.69;36.23;98759.53;5030568;28;20180;-79
2022/05/23 11:08:06;;;;;;;2.17;1.67;;;;;;;26.89;36.34;98744.06;5028835;28;20190;-79
2022/05/23 11:10:43;;;;;;;3.63;1.80;;;;;;;26.68;37.78;98742.28;5029266;28;20177;-78
2022/05/23 11:13:21;;;;;;;4.53;1.70;;;;;;;26.68;37.31;98736.78;5029203;28;20629;-79
2022/05/23 11:16:33;;;;;;;2.72;1.70;;;;;;;26.71;37.13;98736.06;5027830;28;20183;-79
2022/05/23 11:19:09;;;;;;;3.42;1.65;;;;;;;26.93;37.83;98733.97;5025159;28;20921;-80
2022/05/23 11:21:45;;;;;;;2.85;1.80;;;;;;;26.79;37.34;98726.06;5028849;28;20684;-78
2022/05/23 11:24:19;;;;;;;2.83;1.70;;;;;;;26.81;37.28;98725.75;5026986;28;20227;-78
2022/05/23 11:26:49;;;;;;;3.97;1.73;;;;;;;27.31;37.42;98715.03;5029176;28;20216;-78
2022/05/23 11:34:58;;;;;;;3.28;2.33;;;;;;;27.62;36.17;98697.00;5029610;28;20802;-80
2022/05/23 11:37:45;;;;;;;2.95;1.60;;;;;;;27.71;35.12;98698.44;5029193;28;20256;-79
2022/05/23 11:40:38;;;;;;;4.63;1.83;;;;;;;28.06;35.67;98697.69;5027367;28;20593;-80
2022/05/23 11:43:08;;;;;;;3.63;1.75;;;;;;;28.08;34.89;98690.69;5008851;28;20288;-80
2022/05/23 11:48:41;;;;;;;2.30;1.67;;;;;;;28.09;35.31;98683.22;5029669;28;20258;-78
2022/05/23 11:51:40;;;;;;;3.67;1.80;;;;;;;28.06;35.27;98683.91;5027645;28;20200;-78
2022/05/23 11:54:29;;;;;;;3.80;1.65;;;;;;;28.18;34.55;98679.16;5025057;28;20205;-77
2022/05/23 11:57:02;;;;;;;3.58;1.63;;;;;;;27.91;34.33;98691.84;5024799;28;20256;-78
2022/05/23 11:59:29;;;;;;;2.70;1.73;;;;;;;28.09;35.16;98680.47;5029230;28;20232;-79
2022/05/23 12:02:08;;;;;;;2.72;1.67;;;;;;;27.91;35.20;98674.53;5029523;28;20764;-78
2022/05/23 12:04:51;;;;;;;4.13;1.85;;;;;;;27.95;35.04;98678.94;5029204;28;20182;-79
2022/05/23 12:07:44;;;;;;;3.33;1.80;;;;;;;28.22;35.05;98669.00;5028539;28;20244;-79
2022/05/23 12:10:37;;;;;;;3.85;1.80;;;;;;;28.33;34.49;98660.97;5029353;28;20241;-78
2022/05/23 12:13:11;;;;;;;3.20;1.75;;;;;;;28.45;35.20;98666.38;5023093;28;20742;-78
2022/05/23 12:15:44;;;;;;;3.33;2.10;;;;;;;28.31;34.89;98658.59;5029358;28;20206;-78
2022/05/23 12:18:19;;;;;;;3.35;1.90;;;;;;;28.29;35.16;98660.09;5029075;28;20251;-79
2022/05/23 12:20:57;;;;;;;4.40;1.95;;;;;;;27.81;35.84;98655.81;5029272;28;20167;-79
2022/05/23 12:23:42;;;;;;;4.03;2.05;;;;;;;27.49;37.38;98655.81;5028892;28;20190;-79
2022/05/23 12:26:09;;;;;;;4.47;2.10;;;;;;;27.25;36.90;98655.16;5028137;28;20616;-80
2022/05/23 12:28:58;;;;;;;4.65;2.30;;;;;;;27.09;37.04;98650.41;5029649;28;20187;-79
2022/05/23 12:31:36;;;;;;;3.85;2.20;;;;;;;27.10;37.08;98646.53;5029694;28;20209;-79
2022/05/23 12:34:08;;;;;;;4.82;2.25;;;;;;;27.16;36.99;98639.59;5028500;28;20194;-80
2022/05/23 12:36:50;;;;;;;2.42;2.00;;;;;;;27.26;36.50;98643.78;5031613;28;20179;-78
2022/05/23 12:39:40;;;;;;;3.42;1.85;;;;;;;27.39;36.94;98650.03;5033075;28;20183;-79
2022/05/23 12:42:20;;;;;;;2.88;2.00;;;;;;;26.94;37.27;98637.44;5033393;28;20193;-78
2022/05/23 12:45:08;;;;;;;4.60;1.90;;;;;;;26.58;38.40;98630.13;5033206;28;20193;-79
2022/05/23 12:47:47;;;;;;;2.65;1.70;;;;;;;26.59;38.06;98626.22;5033170;28;20611;-79
2022/05/23 12:50:18;;;;;;;3.58;2.13;;;;;;;26.49;37.86;98621.22;5032886;28;20183;-78
2022/05/23 12:53:03;;;;;;;2.95;1.92;;;;;;;25.70;39.67;98625.44;5032989;28;20212;-78
2022/05/23 12:55:48;;;;;;;3.50;1.85;;;;;;;25.86;39.83;98611.81;5032621;28;20205;-80
2022/05/23 12:58:53;;;;;;;3.33;2.15;;;;;;;25.41;41.25;98614.66;5012787;28;20226;-78
2022/05/23 13:01:24;;;;;;;3.05;2.10;;;;;;;25.01;42.37;98610.94;5006494;28;20215;-80
2022/05/23 13:04:16;;;;;;;5.82;2.28;;;;;;;24.66;43.27;98608.50;5001695;28;20285;-79
2022/05/23 13:07:06;;;;;;;2.67;2.03;;;;;;;24.58;43.70;98609.41;5031689;28;20189;-78